createdAt,value
2019-05-09T00:02:17.384Z,3.10
2019-05-09T00:04:46.891Z,3.70
2019-05-09T00:07:16.102Z,3.07
2019-05-09T00:09:47.334Z,3.13
2019-05-09T00:12:16.461Z,2.80
2019-05-09T00:14:45.605Z,3.23
2019-05-09T00:17:15.119Z,3.50
2019-05-09T00:19:47.437Z,3.10
2019-05-09T00:22:17.168Z,2.67
2019-05-09T00:24:46.318Z,3.17
2019-05-09T00:27:17.993Z,3.07
2019-05-09T00:29:49.464Z,2.90
2019-05-09T00:32:36.062Z,3.70
2019-05-09T00:35:37.942Z,3.70
2019-05-09T00:38:08.730Z,3.50
2019-05-09T00:40:52.379Z,3.87
2019-05-09T00:43:13.337Z,3.57
2019-05-09T00:46:06.255Z,3.13
2019-05-09T00:49:05.316Z,3.13
2019-05-09T00:51:36.424Z,3.47
2019-05-09T00:54:06.299Z,3.37
2019-05-09T00:56:37.710Z,3.37
2019-05-09T00:59:06.936Z,3.70
2019-05-09T01:01:40.258Z,4.10
2019-05-09T01:04:09.502Z,5.23
2019-05-09T01:06:43.522Z,3.73
2019-05-09T01:09:13.708Z,4.30
2019-05-09T01:11:44.087Z,4.37
2019-05-09T01:14:14.230Z,3.83
2019-05-09T01:16:44.144Z,4.30
2019-05-09T01:19:14.238Z,3.80
2019-05-09T01:21:45.069Z,3.13
2019-05-09T01:24:15.060Z,3.30
2019-05-09T01:26:44.241Z,3.20
2019-05-09T01:29:18.518Z,3.30
2019-05-09T01:31:48.980Z,3.33
2019-05-09T01:34:23.974Z,2.80
2019-05-09T01:37:10.429Z,3.50
2019-05-09T01:39:41.083Z,3.07
2019-05-09T01:42:13.859Z,3.23
2019-05-09T01:44:45.062Z,2.77
2019-05-09T01:47:14.279Z,3.23
2019-05-09T01:49:43.458Z,2.90
2019-05-09T01:52:13.793Z,3.70
2019-05-09T01:54:44.804Z,3.63
2019-05-09T01:57:13.946Z,3.30
2019-05-09T01:59:44.379Z,3.20
2019-05-09T02:02:14.331Z,3.13
2019-05-09T02:04:44.017Z,3.17
2019-05-09T02:07:14.324Z,3.57
2019-05-09T02:09:43.569Z,3.03
2019-05-09T02:12:14.247Z,3.57
2019-05-09T02:15:08.635Z,3.53
2019-05-09T02:18:01.643Z,3.23
2019-05-09T02:20:28.040Z,3.40
2019-05-09T02:22:57.174Z,3.10
2019-05-09T02:25:26.403Z,3.10
2019-05-09T02:27:55.619Z,3.13
2019-05-09T02:30:25.598Z,3.53
2019-05-09T02:32:56.750Z,3.67
2019-05-09T02:35:31.525Z,3.47
2019-05-09T02:38:00.396Z,4.17
2019-05-09T02:40:31.394Z,3.90
2019-05-09T02:43:04.233Z,3.47
2019-05-09T02:45:40.373Z,2.50
2019-05-09T02:48:18.630Z,3.27
2019-05-09T02:50:48.670Z,2.97
2019-05-09T02:53:18.953Z,2.57
2019-05-09T02:55:51.348Z,2.40
2019-05-09T02:58:22.291Z,2.83
2019-05-09T03:01:01.858Z,3.17
2019-05-09T03:03:34.257Z,2.47
2019-05-09T03:06:03.885Z,2.40
2019-05-09T03:08:33.085Z,2.50
2019-05-09T03:11:02.322Z,2.93
2019-05-09T03:13:32.005Z,2.63
2019-05-09T03:16:13.143Z,2.33
2019-05-09T03:18:42.334Z,2.17
2019-05-09T03:21:30.997Z,2.60
2019-05-09T03:24:00.421Z,2.20
2019-05-09T03:26:34.723Z,2.00
2019-05-09T03:29:18.811Z,2.07
2019-05-09T03:31:50.052Z,2.60
2019-05-09T03:34:19.460Z,2.57
2019-05-09T03:36:48.989Z,2.80
2019-05-09T03:39:18.687Z,2.77
2019-05-09T03:41:51.574Z,2.43
2019-05-09T03:44:20.703Z,2.90
2019-05-09T03:46:58.074Z,2.57
2019-05-09T03:49:28.433Z,2.73
2019-05-09T03:51:58.590Z,2.80
2019-05-09T03:54:28.548Z,2.27
2019-05-09T03:57:07.731Z,3.00
2019-05-09T03:59:38.085Z,2.57
2019-05-09T04:02:10.757Z,2.57
2019-05-09T04:04:39.904Z,2.57
2019-05-09T04:07:11.058Z,2.87
2019-05-09T04:09:43.798Z,2.57
2019-05-09T04:12:12.974Z,2.50
2019-05-09T04:14:42.236Z,2.67
2019-05-09T04:17:15.560Z,2.60
2019-05-09T04:19:47.686Z,2.60
2019-05-09T04:22:18.209Z,2.30
2019-05-09T04:24:48.070Z,2.40
2019-05-09T04:27:25.144Z,2.13
2019-05-09T04:29:57.393Z,2.63
2019-05-09T04:32:27.388Z,2.50
2019-05-09T04:34:57.915Z,2.40
2019-05-09T04:37:31.024Z,2.43
2019-05-09T04:40:03.353Z,3.40
2019-05-09T04:42:35.103Z,2.67
2019-05-09T04:45:33.190Z,2.53
2019-05-09T04:48:03.157Z,2.87
2019-05-09T04:50:32.355Z,2.30
2019-05-09T04:53:01.521Z,2.57
2019-05-09T04:55:32.707Z,2.67
2019-05-09T04:58:01.846Z,1.93
2019-05-09T05:00:53.324Z,2.33
2019-05-09T05:03:24.994Z,2.40
2019-05-09T05:05:54.130Z,2.33
2019-05-09T05:08:23.269Z,2.33
2019-05-09T05:10:52.509Z,2.63
2019-05-09T05:13:26.356Z,2.20
2019-05-09T05:15:52.464Z,2.60
2019-05-09T05:18:21.571Z,2.30
2019-05-09T05:20:50.721Z,2.90
2019-05-09T05:23:27.597Z,2.50
2019-05-09T05:25:57.988Z,2.43
2019-05-09T05:28:27.835Z,2.93
2019-05-09T05:30:58.214Z,2.60
2019-05-09T05:33:42.759Z,2.90
2019-05-09T05:36:11.976Z,2.30
2019-05-09T05:38:41.162Z,2.60
2019-05-09T05:41:10.297Z,2.87
2019-05-09T05:43:44.293Z,2.33
2019-05-09T05:46:29.351Z,3.17
2019-05-09T05:48:58.477Z,2.57
2019-05-09T05:51:27.771Z,2.50
2019-05-09T05:53:57.476Z,3.40
2019-05-09T05:56:28.004Z,2.93
2019-05-09T05:58:58.055Z,2.70
2019-05-09T06:01:28.001Z,2.70
2019-05-09T06:03:58.650Z,2.33
2019-05-09T06:06:28.092Z,2.57
2019-05-09T06:08:57.920Z,2.70
2019-05-09T06:11:28.066Z,3.10
2019-05-09T06:14:04.302Z,2.93
2019-05-09T06:16:28.438Z,2.97
2019-05-09T06:18:58.524Z,2.90
2019-05-09T06:21:28.407Z,3.03
2019-05-09T06:23:58.397Z,3.10
2019-05-09T06:26:29.297Z,2.50
2019-05-09T06:28:59.050Z,3.00
2019-05-09T06:31:28.528Z,2.67
2019-05-09T06:33:59.290Z,2.50
2019-05-09T06:36:28.521Z,2.87
2019-05-09T06:38:58.843Z,2.53
2019-05-09T06:41:28.684Z,2.20
2019-05-09T06:44:14.239Z,2.50
2019-05-09T06:46:43.644Z,2.50
2019-05-09T06:49:27.566Z,2.27
2019-05-09T06:51:47.653Z,2.67
2019-05-09T06:54:17.458Z,2.67
2019-05-09T06:56:49.699Z,2.53
2019-05-09T06:59:19.122Z,2.67
2019-05-09T07:01:57.824Z,2.83
2019-05-09T07:04:42.624Z,2.83
2019-05-09T07:07:17.650Z,2.53
2019-05-09T07:09:51.692Z,2.60
2019-05-09T07:12:20.843Z,2.33
2019-05-09T07:14:49.973Z,3.07
2019-05-09T07:17:19.238Z,2.73
2019-05-09T07:19:49.064Z,2.77
2019-05-09T07:22:39.254Z,3.13
2019-05-09T07:25:18.564Z,2.77
2019-05-09T07:27:48.434Z,2.80
2019-05-09T07:30:37.582Z,3.00
2019-05-09T07:33:29.757Z,3.10
2019-05-09T07:35:58.887Z,2.60
2019-05-09T07:38:34.504Z,2.80
2019-05-09T07:41:03.772Z,3.37
2019-05-09T07:43:32.953Z,3.10
2019-05-09T07:46:14.563Z,2.37
2019-05-09T07:48:44.473Z,2.80
2019-05-09T07:51:13.672Z,4.37
2019-05-09T07:53:42.850Z,3.10
2019-05-09T07:56:12.172Z,2.90
2019-05-09T07:58:41.388Z,2.87
2019-05-09T08:01:10.582Z,3.30
2019-05-09T08:03:39.954Z,2.53
2019-05-09T08:06:10.429Z,3.00
2019-05-09T08:08:39.718Z,3.00
2019-05-09T08:11:09.168Z,3.03
2019-05-09T08:13:39.227Z,2.90
2019-05-09T08:16:14.392Z,3.10
2019-05-09T08:18:39.752Z,3.50
2019-05-09T08:21:09.056Z,3.10
2019-05-09T08:23:38.222Z,3.33
2019-05-09T08:26:08.677Z,3.50
2019-05-09T08:28:39.158Z,3.27
2019-05-09T08:31:08.621Z,3.60
2019-05-09T08:33:38.295Z,3.87
2019-05-09T08:36:08.615Z,4.07
2019-05-09T08:38:39.215Z,3.87
2019-05-09T08:41:13.660Z,3.73
2019-05-09T08:43:43.049Z,3.43
2019-05-09T08:46:14.369Z,4.23
2019-05-09T08:48:44.028Z,4.30
2019-05-09T08:51:37.738Z,4.80
2019-05-09T08:54:03.515Z,4.00
2019-05-09T08:56:32.726Z,4.03
2019-05-09T08:59:02.461Z,4.13
2019-05-09T09:01:49.603Z,4.40
2019-05-09T09:04:02.759Z,4.47
2019-05-09T09:06:31.916Z,4.93
2019-05-09T09:09:01.049Z,5.40
2019-05-09T09:11:30.297Z,4.60
2019-05-09T09:13:59.436Z,4.70
2019-05-09T09:16:29.680Z,4.57
2019-05-09T09:18:58.840Z,4.40
2019-05-09T09:21:28.615Z,4.53
2019-05-09T09:23:58.365Z,5.23
2019-05-09T09:26:27.940Z,5.20
2019-05-09T09:28:58.465Z,4.87
2019-05-09T09:31:28.481Z,5.40
2019-05-09T09:33:58.560Z,5.83
2019-05-09T09:36:28.214Z,5.57
2019-05-09T09:38:58.590Z,5.67
2019-05-09T09:41:28.691Z,5.77
2019-05-09T09:43:58.454Z,5.67
2019-05-09T09:46:29.433Z,6.43
2019-05-09T09:48:59.175Z,9.20
2019-05-09T09:51:28.445Z,10.70
2019-05-09T09:53:58.432Z,8.93
2019-05-09T09:56:28.346Z,8.93
2019-05-09T09:59:11.807Z,8.53
2019-05-09T10:01:42.529Z,7.27
2019-05-09T10:04:20.658Z,5.97
2019-05-09T10:06:48.184Z,6.03
2019-05-09T10:09:17.512Z,6.67
2019-05-09T10:11:48.324Z,6.43
2019-05-09T10:14:23.076Z,7.37
2019-05-09T10:17:10.543Z,9.47
2019-05-09T10:19:48.167Z,7.60
2019-05-09T10:22:23.666Z,6.93
2019-05-09T10:24:51.898Z,5.47
2019-05-09T10:27:21.100Z,6.37
2019-05-09T10:29:50.212Z,6.03
2019-05-09T10:32:19.412Z,7.07
2019-05-09T10:34:49.039Z,7.13
2019-05-09T10:37:18.730Z,6.83
2019-05-09T10:39:49.034Z,7.27
2019-05-09T10:42:28.708Z,7.10
2019-05-09T10:45:08.715Z,7.00
2019-05-09T10:47:37.996Z,7.07
2019-05-09T10:50:09.272Z,6.07
2019-05-09T10:52:38.268Z,6.17
2019-05-09T10:55:09.334Z,4.73
2019-05-09T10:57:42.370Z,5.40
2019-05-09T11:00:09.735Z,5.57
2019-05-09T11:02:38.941Z,5.00
2019-05-09T11:05:11.436Z,4.57
2019-05-09T11:07:41.316Z,4.30
2019-05-09T11:10:24.604Z,4.60
2019-05-09T11:12:44.688Z,4.07
2019-05-09T11:15:17.792Z,4.53
2019-05-09T11:17:47.564Z,4.40
2019-05-09T11:20:19.365Z,4.53
2019-05-09T11:22:49.230Z,4.70
2019-05-09T11:25:20.617Z,3.93
2019-05-09T11:28:06.855Z,3.47
2019-05-09T11:30:20.913Z,2.90
2019-05-09T11:32:52.839Z,2.40
2019-05-09T11:35:27.952Z,3.33
2019-05-09T11:37:58.717Z,2.43
2019-05-09T11:40:28.937Z,2.70
2019-05-09T11:43:00.931Z,2.80
2019-05-09T11:45:30.085Z,3.13
2019-05-09T11:48:00.250Z,3.30
2019-05-09T11:50:29.479Z,3.50
2019-05-09T11:53:00.223Z,2.87
2019-05-09T11:55:35.942Z,2.10
2019-05-09T11:58:00.940Z,2.43
2019-05-09T12:00:30.183Z,2.17
2019-05-09T12:03:01.135Z,3.03
2019-05-09T12:05:30.373Z,3.00
2019-05-09T12:08:01.925Z,4.00
2019-05-09T12:10:31.384Z,2.87
2019-05-09T12:13:03.530Z,3.43
2019-05-09T12:15:42.493Z,3.60
2019-05-09T12:18:12.203Z,2.90
2019-05-09T12:20:48.266Z,4.17
2019-05-09T12:23:19.949Z,3.50
2019-05-09T12:25:50.501Z,3.70
2019-05-09T12:28:26.373Z,3.70
2019-05-09T12:30:55.974Z,3.57
2019-05-09T12:33:28.205Z,4.60
2019-05-09T12:36:04.759Z,4.30
2019-05-09T12:38:38.904Z,3.60
2019-05-09T12:41:11.077Z,3.60
2019-05-09T12:43:43.750Z,5.50
2019-05-09T12:46:15.215Z,3.80
2019-05-09T12:48:49.494Z,3.33
2019-05-09T12:51:33.039Z,3.40
2019-05-09T12:54:04.168Z,3.27
2019-05-09T12:56:40.125Z,3.60
2019-05-09T12:59:05.258Z,3.43
2019-05-09T13:01:40.824Z,3.67
2019-05-09T13:04:11.896Z,3.80
2019-05-09T13:06:41.554Z,3.83
2019-05-09T13:09:14.582Z,3.90
2019-05-09T13:11:52.858Z,3.10
2019-05-09T13:14:25.343Z,4.07
2019-05-09T13:17:20.049Z,4.07
2019-05-09T13:19:53.093Z,3.97
2019-05-09T13:22:22.353Z,4.13
2019-05-09T13:24:51.948Z,3.40
2019-05-09T13:27:22.595Z,3.83
2019-05-09T13:29:51.775Z,3.57
2019-05-09T13:32:21.165Z,3.93
2019-05-09T13:34:50.291Z,3.47
2019-05-09T13:37:19.329Z,3.77
2019-05-09T13:39:48.506Z,2.70
2019-05-09T13:42:19.598Z,2.83
2019-05-09T13:44:48.497Z,3.23
2019-05-09T13:47:18.022Z,2.93
2019-05-09T13:49:48.453Z,2.77
2019-05-09T13:52:18.087Z,2.73
2019-05-09T13:54:48.345Z,2.87
2019-05-09T13:57:18.822Z,2.30
2019-05-09T13:59:48.766Z,2.17
2019-05-09T14:02:18.990Z,1.90
2019-05-09T14:04:48.804Z,2.20
2019-05-09T14:07:19.370Z,2.20
2019-05-09T14:09:48.824Z,1.70
2019-05-09T14:12:18.150Z,2.20
2019-05-09T14:14:47.266Z,2.60
2019-05-09T14:17:19.104Z,2.27
2019-05-09T14:19:50.815Z,2.20
2019-05-09T14:22:18.261Z,2.53
2019-05-09T14:25:33.284Z,2.93
2019-05-09T14:28:00.884Z,2.70
2019-05-09T14:30:30.154Z,2.70
2019-05-09T14:33:00.271Z,3.00
2019-05-09T14:35:29.668Z,2.63
2019-05-09T14:37:59.215Z,3.87
2019-05-09T14:40:28.497Z,3.47
2019-05-09T14:42:57.859Z,3.60
2019-05-09T14:45:28.012Z,3.17
2019-05-09T14:47:58.776Z,3.00
2019-05-09T14:50:28.636Z,2.57
2019-05-09T14:52:58.497Z,2.70
2019-05-09T14:55:28.557Z,2.77
2019-05-09T14:57:58.335Z,2.63
2019-05-09T15:00:27.956Z,2.37
2019-05-09T15:02:58.099Z,2.10
2019-05-09T15:05:27.975Z,2.03
2019-05-09T15:07:59.238Z,2.83
2019-05-09T15:10:32.150Z,2.10
2019-05-09T15:13:01.248Z,2.50
2019-05-09T15:15:32.741Z,2.67
2019-05-09T15:18:01.363Z,2.33
2019-05-09T15:20:30.559Z,3.00
2019-05-09T15:22:59.699Z,2.67
2019-05-09T15:25:28.816Z,2.50
2019-05-09T15:27:58.193Z,2.27
2019-05-09T15:30:28.727Z,2.95
2019-05-09T15:32:58.659Z,2.30
2019-05-09T15:35:28.165Z,2.35
2019-05-09T15:37:59.045Z,1.80
2019-05-09T15:40:28.488Z,2.42
2019-05-09T15:42:58.791Z,2.37
2019-05-09T15:45:33.712Z,2.50
2019-05-09T15:48:02.827Z,2.40
2019-05-09T15:50:31.969Z,2.30
2019-05-09T15:53:01.964Z,2.58
2019-05-09T15:55:31.156Z,2.25
2019-05-09T15:58:00.341Z,2.50
2019-05-09T16:00:29.452Z,2.00
2019-05-09T16:02:59.203Z,2.17
2019-05-09T16:05:28.508Z,2.15
2019-05-09T16:07:58.594Z,1.98
2019-05-09T16:10:28.429Z,2.50
2019-05-09T16:12:57.711Z,2.30
2019-05-09T16:15:28.641Z,1.80
2019-05-09T16:17:57.730Z,2.22
2019-05-09T16:20:37.013Z,1.87
2019-05-09T16:22:57.782Z,3.23
2019-05-09T16:25:28.242Z,2.07
2019-05-09T16:27:58.624Z,2.63
2019-05-09T16:30:28.115Z,2.60
2019-05-09T16:32:58.635Z,2.27
2019-05-09T16:35:28.616Z,2.73
2019-05-09T16:38:05.883Z,2.40
2019-05-09T16:40:28.762Z,2.40
2019-05-09T16:42:58.176Z,2.43
2019-05-09T16:45:28.725Z,3.33
2019-05-09T16:47:58.148Z,2.10
2019-05-09T16:50:27.414Z,2.20
2019-05-09T16:52:58.460Z,3.03
2019-05-09T16:55:32.630Z,2.93
2019-05-09T16:58:01.833Z,2.07
2019-05-09T17:00:38.100Z,3.03
2019-05-09T17:03:08.120Z,2.53
2019-05-09T17:05:37.541Z,2.37
2019-05-09T17:08:08.225Z,3.00
2019-05-09T17:10:37.805Z,2.07
2019-05-09T17:13:09.283Z,2.40
2019-05-09T17:15:39.058Z,2.20
2019-05-09T17:18:10.045Z,2.10
2019-05-09T17:21:15.918Z,2.73
2019-05-09T17:23:38.322Z,2.50
2019-05-09T17:26:10.532Z,2.50
2019-05-09T17:28:40.011Z,2.60
2019-05-09T17:31:13.464Z,2.83
2019-05-09T17:33:43.213Z,3.53
2019-05-09T17:36:18.031Z,3.03
2019-05-09T17:38:50.856Z,2.60
2019-05-09T17:41:24.409Z,2.20
2019-05-09T17:43:54.164Z,2.13
2019-05-09T17:46:27.527Z,2.13
2019-05-09T17:48:58.298Z,2.70
2019-05-09T17:51:34.005Z,2.80
2019-05-09T17:54:01.271Z,2.77
2019-05-09T17:56:32.754Z,2.07
2019-05-09T17:59:10.888Z,2.40
2019-05-09T18:01:43.339Z,3.20
2019-05-09T18:04:14.597Z,2.87
2019-05-09T18:06:43.806Z,3.23
2019-05-09T18:09:13.336Z,2.97
2019-05-09T18:11:42.613Z,3.33
2019-05-09T18:14:18.520Z,3.70
2019-05-09T18:16:49.391Z,3.43
2019-05-09T18:19:19.377Z,3.10
2019-05-09T18:21:51.243Z,3.67
2019-05-09T18:24:21.897Z,3.53
2019-05-09T18:26:51.107Z,3.57
2019-05-09T18:29:23.298Z,2.97
2019-05-09T18:32:10.380Z,2.93
2019-05-09T18:34:40.066Z,4.63
2019-05-09T18:37:12.332Z,3.77
2019-05-09T18:39:51.158Z,2.70
2019-05-09T18:42:20.985Z,3.03
2019-05-09T18:44:54.069Z,2.97
2019-05-09T18:47:27.931Z,2.90
2019-05-09T18:49:58.534Z,3.33
2019-05-09T18:52:29.343Z,2.80
2019-05-09T18:54:59.051Z,3.10
2019-05-09T18:57:30.336Z,2.93
2019-05-09T18:59:59.574Z,3.33
2019-05-09T19:02:28.823Z,3.03
2019-05-09T19:04:58.340Z,2.90
2019-05-09T19:07:29.510Z,2.77
2019-05-09T19:10:38.909Z,3.50
2019-05-09T19:13:11.396Z,3.00
2019-05-09T19:15:58.739Z,3.53
2019-05-09T19:18:58.070Z,3.60
2019-05-09T19:21:36.060Z,3.70
2019-05-09T19:24:05.359Z,3.63
2019-05-09T19:26:48.845Z,3.97
2019-05-09T19:29:28.893Z,4.23
2019-05-09T19:32:02.875Z,3.70
2019-05-09T19:34:37.337Z,3.83
2019-05-09T19:37:18.484Z,3.07
2019-05-09T19:39:51.764Z,3.53
2019-05-09T19:42:29.461Z,3.50
2019-05-09T19:45:00.964Z,4.17
2019-05-09T19:47:34.389Z,3.80
2019-05-09T19:50:20.111Z,3.83
2019-05-09T19:52:57.136Z,3.43
2019-05-09T19:55:30.196Z,3.43
2019-05-09T19:58:09.590Z,3.47
2019-05-09T20:00:47.853Z,3.50
2019-05-09T20:03:33.032Z,3.87
2019-05-09T20:06:07.605Z,2.80
2019-05-09T20:08:44.133Z,2.83
2019-05-09T20:11:33.127Z,3.37
2019-05-09T20:14:32.324Z,2.90
2019-05-09T20:17:20.960Z,3.13
2019-05-09T20:19:57.803Z,3.27
2019-05-09T20:22:34.672Z,3.53
2019-05-09T20:25:06.287Z,3.30
2019-05-09T20:27:37.313Z,3.40
2019-05-09T20:30:20.929Z,3.10
2019-05-09T20:33:05.916Z,3.67
2019-05-09T20:35:42.397Z,3.60
2019-05-09T20:38:43.409Z,2.97
2019-05-09T20:41:19.268Z,3.87
2019-05-09T20:43:58.531Z,3.87
2019-05-09T20:46:40.676Z,3.67
2019-05-09T20:49:13.440Z,3.90
2019-05-09T20:51:47.858Z,3.57
2019-05-09T20:54:25.331Z,3.90
2019-05-09T20:56:56.851Z,4.43
2019-05-09T20:59:42.366Z,4.43
2019-05-09T21:02:18.778Z,5.10
2019-05-09T21:05:04.403Z,5.33
2019-05-09T21:07:47.293Z,6.33
2019-05-09T21:10:45.656Z,8.10
2019-05-09T21:13:12.516Z,9.00
2019-05-09T21:15:48.377Z,6.77
2019-05-09T21:18:19.153Z,6.50
2019-05-09T21:20:48.756Z,6.03
2019-05-09T21:23:24.910Z,6.03
2019-05-09T21:25:52.515Z,7.37
2019-05-09T21:28:36.564Z,6.53
2019-05-09T21:31:10.501Z,7.37
2019-05-09T21:33:47.912Z,6.03
2019-05-09T21:36:24.919Z,6.40
2019-05-09T21:39:01.795Z,6.77
2019-05-09T21:41:39.778Z,8.00
2019-05-09T21:44:16.470Z,7.33
2019-05-09T21:46:47.510Z,7.47
2019-05-09T21:49:21.335Z,6.43
2019-05-09T21:52:01.788Z,6.67
2019-05-09T21:54:54.938Z,6.57
2019-05-09T21:57:44.054Z,5.50
2019-05-09T22:00:22.724Z,6.60
2019-05-09T22:03:00.645Z,6.43
2019-05-09T22:05:41.412Z,7.50
2019-05-09T22:08:20.287Z,6.60
2019-05-09T22:11:03.503Z,6.17
2019-05-09T22:13:52.174Z,6.80
2019-05-09T22:16:26.234Z,7.00
2019-05-09T22:19:08.314Z,6.50
2019-05-09T22:21:53.760Z,3.87
2019-05-09T22:24:35.592Z,4.53
2019-05-09T22:27:11.910Z,4.30
2019-05-09T22:29:57.492Z,3.40
2019-05-09T22:32:45.961Z,3.60
2019-05-09T22:35:39.954Z,3.53
2019-05-09T22:38:22.395Z,3.30
2019-05-09T22:41:02.686Z,3.07
2019-05-09T22:43:55.163Z,2.83
2019-05-09T22:46:39.681Z,3.07
2019-05-09T22:49:19.287Z,3.03
2019-05-09T22:52:02.440Z,3.27
2019-05-09T22:54:45.131Z,3.73
2019-05-09T22:57:23.589Z,3.27
2019-05-09T23:00:00.501Z,3.33
2019-05-09T23:02:38.776Z,3.90
2019-05-09T23:05:22.243Z,4.23
2019-05-09T23:07:53.435Z,4.53
2019-05-09T23:10:36.157Z,4.50
2019-05-09T23:13:08.916Z,4.03
2019-05-09T23:15:47.336Z,5.43
2019-05-09T23:18:21.457Z,5.37
2019-05-09T23:21:02.307Z,4.37
2019-05-09T23:23:47.624Z,4.80
2019-05-09T23:26:28.025Z,5.07
2019-05-09T23:29:04.487Z,3.90
2019-05-09T23:31:53.673Z,3.67
2019-05-09T23:34:47.277Z,3.80
2019-05-09T23:37:21.398Z,3.77
2019-05-09T23:40:04.759Z,3.30
2019-05-09T23:43:09.778Z,3.97
2019-05-09T23:45:55.843Z,3.30
2019-05-09T23:48:34.968Z,3.63
2019-05-09T23:51:16.955Z,3.67
2019-05-09T23:53:56.210Z,3.10
2019-05-09T23:56:55.121Z,3.73
2019-05-09T23:59:54.242Z,2.73
